createdAt,value
2022-10-24T00:00:05.309Z,10.70
2022-10-24T00:02:58.272Z,10.10
2022-10-24T00:05:31.264Z,10.60
2022-10-24T00:08:04.950Z,10.50
2022-10-24T00:10:37.656Z,11.10
2022-10-24T00:13:10.271Z,11.30
2022-10-24T00:15:46.222Z,9.80
2022-10-24T00:18:21.210Z,10.90
2022-10-24T00:20:53.752Z,10.40
2022-10-24T00:23:26.374Z,10.60
2022-10-24T00:26:02.324Z,11.10
2022-10-24T00:28:37.281Z,12.10
2022-10-24T00:31:14.255Z,11.80
2022-10-24T00:33:47.071Z,12.20
2022-10-24T00:36:24.126Z,11.30
2022-10-24T00:38:56.960Z,11.60
2022-10-24T00:41:40.169Z,11.30
2022-10-24T00:44:28.336Z,11.10
2022-10-24T00:47:10.021Z,11.30
2022-10-24T00:50:04.769Z,11.40
2022-10-24T00:52:44.673Z,11.50
2022-10-24T00:55:18.158Z,11.70
2022-10-24T00:57:57.251Z,12.30
2022-10-24T01:00:33.577Z,12.00
2022-10-24T01:03:06.276Z,11.60
2022-10-24T01:05:48.321Z,10.50
2022-10-24T01:11:25.540Z,10.50
2022-10-24T01:14:08.879Z,10.40
2022-10-24T01:16:50.617Z,10.30
2022-10-24T01:19:53.921Z,9.60
2022-10-24T01:22:34.422Z,9.90
2022-10-24T01:25:20.731Z,9.10
2022-10-24T01:28:09.691Z,9.20
2022-10-24T01:30:57.951Z,9.40
2022-10-24T01:33:36.229Z,9.50
2022-10-24T01:36:18.982Z,9.90
2022-10-24T01:39:03.970Z,10.30
2022-10-24T01:41:37.337Z,9.80
2022-10-24T01:44:18.290Z,10.20
2022-10-24T01:47:02.169Z,10.70
2022-10-24T01:49:38.587Z,10.50
2022-10-24T01:54:53.042Z,10.60
2022-10-24T01:57:36.696Z,10.40
2022-10-24T02:00:12.004Z,10.10
2022-10-24T02:02:55.743Z,9.50
2022-10-24T02:05:51.266Z,10.50
2022-10-24T02:08:30.326Z,9.80
2022-10-24T02:11:07.615Z,10.00
2022-10-24T02:13:59.812Z,10.90
2022-10-24T02:16:33.093Z,10.60
2022-10-24T02:19:07.130Z,11.20
2022-10-24T02:22:18.627Z,10.60
2022-10-24T02:24:59.449Z,10.50
2022-10-24T02:27:49.806Z,11.10
2022-10-24T02:30:28.585Z,10.50
2022-10-24T02:33:02.206Z,10.10
2022-10-24T02:35:38.851Z,9.70
2022-10-24T02:38:23.094Z,10.30
2022-10-24T02:40:57.155Z,10.20
2022-10-24T02:43:31.145Z,9.60
2022-10-24T02:46:05.054Z,9.20
2022-10-24T02:48:44.884Z,9.50
2022-10-24T02:51:19.688Z,9.60
2022-10-24T02:53:53.373Z,9.60
2022-10-24T02:56:26.184Z,9.90
2022-10-24T02:58:58.880Z,9.40
2022-10-24T03:01:35.353Z,9.90
2022-10-24T03:04:07.945Z,9.60
2022-10-24T03:06:41.294Z,9.70
2022-10-24T03:09:14.033Z,9.30
2022-10-24T03:11:48.036Z,9.30
2022-10-24T03:14:20.508Z,9.20
2022-10-24T03:16:53.157Z,9.40
2022-10-24T03:19:25.449Z,9.80
2022-10-24T03:21:58.011Z,10.00
2022-10-24T03:24:43.451Z,10.20
2022-10-24T03:27:19.705Z,9.30
2022-10-24T03:29:52.577Z,9.50
2022-10-24T03:35:04.598Z,9.30
2022-10-24T03:37:37.131Z,10.70
2022-10-24T03:40:10.298Z,10.40
2022-10-24T03:42:45.323Z,10.60
2022-10-24T03:45:18.846Z,9.90
2022-10-24T03:47:52.004Z,9.50
2022-10-24T03:50:24.669Z,9.80
2022-10-24T03:52:58.060Z,9.60
2022-10-24T03:55:32.086Z,9.00
2022-10-24T03:58:08.735Z,9.00
2022-10-24T04:00:45.445Z,9.30
2022-10-24T04:03:17.986Z,8.80
2022-10-24T04:05:50.479Z,8.80
2022-10-24T04:08:23.035Z,8.80
2022-10-24T04:10:56.145Z,9.30
2022-10-24T04:13:33.445Z,8.90
2022-10-24T04:16:06.139Z,9.00
2022-10-24T04:18:41.726Z,8.80
2022-10-24T04:21:21.845Z,8.70
2022-10-24T04:23:55.056Z,8.80
2022-10-24T04:26:27.885Z,8.90
2022-10-24T04:29:05.808Z,9.20
2022-10-24T04:31:38.664Z,8.20
2022-10-24T04:34:11.568Z,9.50
2022-10-24T04:36:44.003Z,8.20
2022-10-24T04:39:16.834Z,7.80
2022-10-24T04:41:49.699Z,8.20
2022-10-24T04:44:22.537Z,8.10
2022-10-24T04:46:56.006Z,8.40
2022-10-24T04:49:29.094Z,8.30
2022-10-24T04:52:03.610Z,8.40
2022-10-24T04:54:37.266Z,8.10
2022-10-24T04:57:10.332Z,8.10
2022-10-24T04:59:42.907Z,8.80
2022-10-24T05:02:16.343Z,7.90
2022-10-24T05:04:49.514Z,7.80
2022-10-24T05:07:26.169Z,7.30
2022-10-24T05:10:12.169Z,7.50
2022-10-24T05:12:45.280Z,7.30
2022-10-24T05:15:19.242Z,8.00
2022-10-24T05:17:51.637Z,7.80
2022-10-24T05:20:24.184Z,8.10
2022-10-24T05:22:57.532Z,7.80
2022-10-24T05:25:30.445Z,7.80
2022-10-24T05:28:03.942Z,8.00
2022-10-24T05:30:36.965Z,8.00
2022-10-24T05:33:09.964Z,8.80
2022-10-24T05:35:44.219Z,8.40
2022-10-24T05:38:17.578Z,8.10
2022-10-24T05:40:52.098Z,8.60
2022-10-24T05:43:25.001Z,7.60
2022-10-24T05:45:58.167Z,8.10
2022-10-24T05:48:31.064Z,7.80
2022-10-24T05:51:03.832Z,8.40
2022-10-24T05:53:36.702Z,8.30
2022-10-24T05:56:13.975Z,9.80
2022-10-24T05:58:46.977Z,11.80
2022-10-24T06:01:20.524Z,16.00
2022-10-24T06:03:57.149Z,16.80
2022-10-24T06:06:29.991Z,14.90
2022-10-24T06:09:02.830Z,11.90
2022-10-24T06:11:36.288Z,11.30
2022-10-24T06:14:09.516Z,9.50
2022-10-24T06:16:42.188Z,9.90
2022-10-24T06:19:14.463Z,10.80
2022-10-24T06:21:47.006Z,12.20
2022-10-24T06:24:24.221Z,15.50
2022-10-24T06:26:57.142Z,13.60
2022-10-24T06:29:30.025Z,14.70
2022-10-24T06:32:03.265Z,14.20
2022-10-24T06:34:36.967Z,13.30
2022-10-24T06:37:10.134Z,14.30
2022-10-24T06:39:43.290Z,14.50
2022-10-24T06:42:16.282Z,14.60
2022-10-24T06:44:49.382Z,13.10
2022-10-24T06:47:22.426Z,13.30
2022-10-24T06:49:59.258Z,12.90
2022-10-24T06:52:32.218Z,13.30
2022-10-24T06:55:05.980Z,12.90
2022-10-24T06:57:39.190Z,13.40
2022-10-24T07:00:12.556Z,13.90
2022-10-24T07:02:45.783Z,14.00
2022-10-24T07:05:19.156Z,12.70
2022-10-24T07:07:52.375Z,13.30
2022-10-24T07:10:25.490Z,13.10
2022-10-24T07:12:58.434Z,13.20
2022-10-24T07:15:31.206Z,14.70
2022-10-24T07:18:04.103Z,13.40
2022-10-24T07:23:15.996Z,13.00
2022-10-24T07:25:49.013Z,14.10
2022-10-24T07:28:22.074Z,14.10
2022-10-24T07:30:55.285Z,15.10
2022-10-24T07:33:28.890Z,14.40
2022-10-24T07:36:02.934Z,14.30
2022-10-24T07:38:36.570Z,12.90
2022-10-24T07:41:09.883Z,12.70
2022-10-24T07:43:43.015Z,11.70
2022-10-24T07:46:18.227Z,10.60
2022-10-24T07:48:55.371Z,11.80
2022-10-24T07:51:32.288Z,11.30
2022-10-24T07:54:05.490Z,12.70
2022-10-24T07:56:38.527Z,13.10
2022-10-24T07:59:29.794Z,12.50
2022-10-24T08:02:06.252Z,12.70
2022-10-24T08:04:39.734Z,12.80
2022-10-24T08:07:16.860Z,13.60
2022-10-24T08:09:51.817Z,14.80
2022-10-24T08:12:24.786Z,15.20
2022-10-24T08:14:57.878Z,14.20
2022-10-24T08:17:30.905Z,14.10
2022-10-24T08:20:03.599Z,13.80
2022-10-24T08:22:36.384Z,13.20
2022-10-24T08:25:10.647Z,13.20
2022-10-24T08:27:44.523Z,12.80
2022-10-24T08:30:18.105Z,12.90
2022-10-24T08:32:50.751Z,12.80
2022-10-24T08:35:23.819Z,13.20
2022-10-24T08:37:56.736Z,15.70
2022-10-24T08:40:30.119Z,17.60
2022-10-24T08:43:02.912Z,15.00
2022-10-24T08:46:09.293Z,17.60
2022-10-24T08:48:51.842Z,12.10
2022-10-24T08:51:44.558Z,11.20
2022-10-24T08:54:23.157Z,11.50
2022-10-24T08:57:00.828Z,12.80
2022-10-24T08:59:38.469Z,12.00
2022-10-24T09:02:13.530Z,12.60
2022-10-24T09:05:02.102Z,11.80
2022-10-24T09:07:34.632Z,11.70
2022-10-24T09:10:55.370Z,11.20
2022-10-24T09:13:30.334Z,10.40
2022-10-24T09:16:02.931Z,9.80
2022-10-24T09:18:43.794Z,10.60
2022-10-24T09:21:17.816Z,11.10
2022-10-24T09:23:52.173Z,10.90
2022-10-24T09:26:34.903Z,10.20
2022-10-24T09:29:07.702Z,9.80
2022-10-24T09:31:43.525Z,9.50
2022-10-24T09:34:16.634Z,8.90
2022-10-24T09:36:49.475Z,8.20
2022-10-24T09:39:33.196Z,7.60
2022-10-24T09:42:06.963Z,8.00
2022-10-24T09:44:44.285Z,8.00
2022-10-24T09:47:31.495Z,7.70
2022-10-24T09:50:04.535Z,7.10
2022-10-24T09:52:37.166Z,7.00
2022-10-24T09:55:22.162Z,7.60
2022-10-24T09:58:00.904Z,5.30
2022-10-24T10:00:37.121Z,4.20
2022-10-24T10:03:24.125Z,3.90
2022-10-24T10:05:59.247Z,3.90
2022-10-24T10:08:37.494Z,3.90
2022-10-24T10:11:15.650Z,3.80
2022-10-24T10:13:56.107Z,4.00
2022-10-24T10:16:32.392Z,4.00
2022-10-24T10:19:20.378Z,3.80
2022-10-24T10:22:02.977Z,3.70
2022-10-24T10:24:43.870Z,3.30
2022-10-24T10:27:36.113Z,4.20
2022-10-24T10:30:22.240Z,3.90
2022-10-24T10:33:07.137Z,3.90
2022-10-24T10:35:47.730Z,3.90
2022-10-24T10:38:43.540Z,4.20
2022-10-24T10:41:33.410Z,3.50
2022-10-24T10:44:41.721Z,3.50
2022-10-24T10:47:27.712Z,3.30
2022-10-24T10:50:02.091Z,3.30
2022-10-24T10:52:46.457Z,3.30
2022-10-24T10:55:24.834Z,3.10
2022-10-24T10:58:32.382Z,3.10
2022-10-24T11:01:30.165Z,3.20
2022-10-24T11:04:38.941Z,3.30
2022-10-24T11:07:38.697Z,3.20
2022-10-24T11:10:25.965Z,2.80
2022-10-24T11:12:59.987Z,3.10
2022-10-24T11:15:44.715Z,3.40
2022-10-24T11:18:23.813Z,2.90
2022-10-24T11:21:11.337Z,3.20
2022-10-24T11:23:53.796Z,2.90
2022-10-24T11:26:44.175Z,3.10
2022-10-24T11:29:54.409Z,2.80
2022-10-24T11:32:38.510Z,3.20
2022-10-24T11:35:33.693Z,3.60
2022-10-24T11:38:23.515Z,3.50
2022-10-24T11:41:03.184Z,3.30
2022-10-24T11:43:43.944Z,3.00
2022-10-24T11:46:31.325Z,2.60
2022-10-24T11:49:31.260Z,3.10
2022-10-24T11:52:33.127Z,3.00
2022-10-24T11:55:17.642Z,3.10
2022-10-24T11:57:54.503Z,3.00
2022-10-24T12:00:57.681Z,3.20
2022-10-24T12:04:13.679Z,2.90
2022-10-24T12:06:54.766Z,2.90
2022-10-24T12:09:51.082Z,3.00
2022-10-24T12:12:51.475Z,4.30
2022-10-24T12:15:46.930Z,4.10
2022-10-24T12:18:41.370Z,3.60
2022-10-24T12:21:21.043Z,3.40
2022-10-24T12:24:03.877Z,3.30
2022-10-24T12:26:37.654Z,3.30
2022-10-24T12:29:25.666Z,3.50
2022-10-24T12:31:58.221Z,3.90
2022-10-24T12:34:30.289Z,3.70
2022-10-24T12:39:47.586Z,3.50
2022-10-24T12:42:22.873Z,3.90
2022-10-24T12:45:47.063Z,3.60
2022-10-24T12:48:40.484Z,3.40
2022-10-24T12:51:30.523Z,3.00
2022-10-24T12:54:05.627Z,2.90
2022-10-24T12:56:41.400Z,3.10
2022-10-24T12:59:24.456Z,2.90
2022-10-24T13:02:17.489Z,3.40
2022-10-24T13:05:20.859Z,2.80
2022-10-24T13:08:35.923Z,3.10
2022-10-24T13:11:52.242Z,3.40
2022-10-24T13:14:47.240Z,4.20
2022-10-24T13:17:44.578Z,4.60
2022-10-24T13:20:28.092Z,4.20
2022-10-24T13:23:25.511Z,3.90
2022-10-24T13:26:00.522Z,3.60
2022-10-24T13:28:39.912Z,3.80
2022-10-24T13:31:12.371Z,3.40
2022-10-24T13:33:50.163Z,3.60
2022-10-24T13:36:28.586Z,3.60
2022-10-24T13:39:03.892Z,4.10
2022-10-24T13:41:37.766Z,4.10
2022-10-24T13:44:39.721Z,3.90
2022-10-24T13:47:35.503Z,4.40
2022-10-24T13:50:24.099Z,4.40
2022-10-24T13:53:01.088Z,4.10
2022-10-24T13:55:48.706Z,5.00
2022-10-24T13:58:25.922Z,5.60
2022-10-24T14:01:03.356Z,5.00
2022-10-24T14:03:40.104Z,5.10
2022-10-24T14:06:17.378Z,4.60
2022-10-24T14:09:04.221Z,4.70
2022-10-24T14:11:51.160Z,4.80
2022-10-24T14:14:40.467Z,4.00
2022-10-24T14:17:27.274Z,4.50
2022-10-24T14:20:21.565Z,4.50
2022-10-24T14:22:54.988Z,4.40
2022-10-24T14:25:40.316Z,4.50
2022-10-24T14:28:20.904Z,4.10
2022-10-24T14:31:02.271Z,5.30
2022-10-24T14:33:55.686Z,5.20
2022-10-24T14:36:33.385Z,5.30
2022-10-24T14:39:07.076Z,5.00
2022-10-24T14:41:43.837Z,5.60
2022-10-24T14:44:20.033Z,5.80
2022-10-24T14:47:21.475Z,5.40
2022-10-24T14:49:55.054Z,6.50
2022-10-24T14:52:32.718Z,7.60
2022-10-24T14:55:22.041Z,7.20
2022-10-24T14:57:57.376Z,7.20
2022-10-24T15:00:38.243Z,7.00
2022-10-24T15:03:13.020Z,7.20
2022-10-24T15:05:56.576Z,6.40
2022-10-24T15:08:38.578Z,6.90
2022-10-24T15:11:31.857Z,7.30
2022-10-24T15:14:07.009Z,8.80
2022-10-24T15:16:42.728Z,8.10
2022-10-24T15:19:22.197Z,6.80
2022-10-24T15:21:55.078Z,5.40
2022-10-24T15:24:28.820Z,5.20
2022-10-24T15:27:14.762Z,5.80
2022-10-24T15:29:47.403Z,5.80
2022-10-24T15:32:20.062Z,6.50
2022-10-24T15:34:56.515Z,6.60
2022-10-24T15:37:29.247Z,6.80
2022-10-24T15:40:06.376Z,8.30
2022-10-24T15:42:39.616Z,9.20
2022-10-24T15:45:19.917Z,7.70
2022-10-24T15:47:53.498Z,8.20
2022-10-24T15:50:26.777Z,8.80
2022-10-24T15:53:00.818Z,8.70
2022-10-24T15:55:33.900Z,7.90
2022-10-24T15:58:06.445Z,9.10
2022-10-24T16:00:40.411Z,10.00
2022-10-24T16:03:18.730Z,9.50
2022-10-24T16:06:00.129Z,12.40
2022-10-24T16:08:33.203Z,13.90
2022-10-24T16:11:09.248Z,11.50
2022-10-24T16:13:43.130Z,13.10
2022-10-24T16:16:16.085Z,11.00
2022-10-24T16:18:49.070Z,24.20
2022-10-24T16:21:24.265Z,37.20
2022-10-24T16:23:57.289Z,57.50
2022-10-24T16:26:30.270Z,124.20
2022-10-24T16:29:03.133Z,141.70
2022-10-24T16:31:35.776Z,119.40
2022-10-24T16:34:09.341Z,108.50
2022-10-24T16:36:42.210Z,94.50
2022-10-24T16:39:16.889Z,60.20
2022-10-24T16:41:49.498Z,50.60
2022-10-24T16:44:22.386Z,39.50
2022-10-24T16:46:55.977Z,36.50
2022-10-24T16:49:28.851Z,32.20
2022-10-24T16:52:01.563Z,27.90
2022-10-24T16:54:34.135Z,28.40
2022-10-24T16:57:06.759Z,24.80
2022-10-24T16:59:39.967Z,23.70
2022-10-24T17:02:15.278Z,23.90
2022-10-24T17:04:48.202Z,20.90
2022-10-24T17:07:21.038Z,17.40
2022-10-24T17:09:53.651Z,12.40
2022-10-24T17:12:27.916Z,12.60
2022-10-24T17:15:01.122Z,9.10
2022-10-24T17:17:34.354Z,8.50
2022-10-24T17:20:09.347Z,7.90
2022-10-24T17:22:44.851Z,7.50
2022-10-24T17:25:22.846Z,7.00
2022-10-24T17:27:56.121Z,7.30
2022-10-24T17:30:30.716Z,7.20
2022-10-24T17:33:03.796Z,7.00
2022-10-24T17:35:42.426Z,7.10
2022-10-24T17:38:28.544Z,7.70
2022-10-24T17:41:07.640Z,9.80
2022-10-24T17:43:40.223Z,12.00
2022-10-24T17:46:15.183Z,11.40
2022-10-24T17:48:47.942Z,8.90
2022-10-24T17:51:24.263Z,8.50
2022-10-24T17:53:56.760Z,7.50
2022-10-24T17:56:29.790Z,7.20
2022-10-24T17:59:03.049Z,7.90
2022-10-24T18:01:37.046Z,7.70
2022-10-24T18:04:10.021Z,7.10
2022-10-24T18:06:43.496Z,7.90
2022-10-24T18:09:16.238Z,8.30
2022-10-24T18:11:49.345Z,8.10
2022-10-24T18:14:22.391Z,7.40
2022-10-24T18:16:55.317Z,7.60
2022-10-24T18:19:27.985Z,8.00
2022-10-24T18:22:00.808Z,7.10
2022-10-24T18:24:33.152Z,6.60
2022-10-24T18:27:05.581Z,8.30
2022-10-24T18:32:15.085Z,18.00
2022-10-24T18:34:48.344Z,17.70
2022-10-24T18:37:21.072Z,14.30
2022-10-24T18:39:54.137Z,8.10
2022-10-24T18:42:44.538Z,7.30
2022-10-24T18:45:26.176Z,6.50
2022-10-24T18:47:58.818Z,6.10
2022-10-24T18:50:31.493Z,6.40
2022-10-24T18:53:22.466Z,6.30
2022-10-24T18:55:55.536Z,7.70
2022-10-24T18:58:27.983Z,9.40
2022-10-24T19:01:02.212Z,17.70
2022-10-24T19:03:39.059Z,20.40
2022-10-24T19:06:29.928Z,20.90
2022-10-24T19:09:02.522Z,17.20
2022-10-24T19:11:35.356Z,10.50
2022-10-24T19:14:08.252Z,9.50
2022-10-24T19:16:46.360Z,8.60
2022-10-24T19:19:27.918Z,8.80
2022-10-24T19:22:00.820Z,9.60
2022-10-24T19:24:34.767Z,11.20
2022-10-24T19:27:07.824Z,10.10
2022-10-24T19:29:40.465Z,8.90
2022-10-24T19:32:13.449Z,7.30
2022-10-24T19:34:46.487Z,8.40
2022-10-24T19:37:19.816Z,9.50
2022-10-24T19:39:52.517Z,8.10
2022-10-24T19:42:25.210Z,7.20
2022-10-24T19:44:58.268Z,6.30
2022-10-24T19:47:31.308Z,5.90
2022-10-24T19:50:04.247Z,6.10
2022-10-24T19:52:36.859Z,5.90
2022-10-24T19:55:10.141Z,6.00
2022-10-24T19:57:42.416Z,5.70
2022-10-24T20:00:15.373Z,5.70
2022-10-24T20:02:47.993Z,5.60
2022-10-24T20:05:20.617Z,5.90
2022-10-24T20:07:53.149Z,5.50
2022-10-24T20:10:25.707Z,5.60
2022-10-24T20:12:58.258Z,6.10
2022-10-24T20:15:31.132Z,5.90
2022-10-24T20:18:04.611Z,6.10
2022-10-24T20:20:38.213Z,5.40
2022-10-24T20:23:11.027Z,5.60
2022-10-24T20:25:43.660Z,5.80
2022-10-24T20:28:16.434Z,6.10
2022-10-24T20:30:50.160Z,5.70
2022-10-24T20:33:22.958Z,5.40
2022-10-24T20:35:59.770Z,5.40
2022-10-24T20:38:35.780Z,5.30
2022-10-24T20:41:08.569Z,5.80
2022-10-24T20:43:41.303Z,5.90
2022-10-24T20:46:14.307Z,5.20
2022-10-24T20:48:46.921Z,5.20
2022-10-24T20:51:20.859Z,5.30
2022-10-24T20:53:53.553Z,5.70
2022-10-24T20:56:27.287Z,5.70
2022-10-24T20:58:59.852Z,6.00
2022-10-24T21:01:32.827Z,6.00
2022-10-24T21:04:05.551Z,5.60
2022-10-24T21:06:38.180Z,6.10
2022-10-24T21:09:10.696Z,5.30
2022-10-24T21:11:42.991Z,7.60
2022-10-24T21:14:17.712Z,10.90
2022-10-24T21:16:51.165Z,13.40
2022-10-24T21:19:24.077Z,12.50
2022-10-24T21:21:57.009Z,12.50
2022-10-24T21:24:29.855Z,13.10
2022-10-24T21:27:03.076Z,10.40
2022-10-24T21:29:36.094Z,8.90
2022-10-24T21:32:09.492Z,8.00
2022-10-24T21:34:42.193Z,8.20
2022-10-24T21:37:14.771Z,8.50
2022-10-24T21:39:47.185Z,9.30
2022-10-24T21:42:19.844Z,11.80
2022-10-24T21:44:52.688Z,11.10
2022-10-24T21:47:25.056Z,11.10
2022-10-24T21:49:57.414Z,12.40
2022-10-24T21:52:30.023Z,12.10
2022-10-24T21:55:02.624Z,11.50
2022-10-24T21:57:35.107Z,10.40
2022-10-24T22:00:08.511Z,10.30
2022-10-24T22:02:41.088Z,10.30
2022-10-24T22:05:13.909Z,10.70
2022-10-24T22:07:48.906Z,8.90
2022-10-24T22:10:22.200Z,8.70
2022-10-24T22:12:54.591Z,8.60
2022-10-24T22:15:27.013Z,8.90
2022-10-24T22:17:59.414Z,8.00
2022-10-24T22:20:32.001Z,8.20
2022-10-24T22:23:04.508Z,7.80
2022-10-24T22:25:37.646Z,8.40
2022-10-24T22:28:10.530Z,8.10
2022-10-24T22:30:44.140Z,9.40
2022-10-24T22:33:37.481Z,9.00
2022-10-24T22:36:42.174Z,11.10
2022-10-24T22:39:22.746Z,11.10
2022-10-24T22:41:55.721Z,11.00
2022-10-24T22:44:28.431Z,10.50
2022-10-24T22:47:34.193Z,9.30
2022-10-24T22:50:18.503Z,9.50
2022-10-24T22:52:54.331Z,8.60
2022-10-24T22:55:36.322Z,8.80
2022-10-24T22:58:09.421Z,8.30
2022-10-24T23:00:42.141Z,8.30
2022-10-24T23:03:43.423Z,7.40
2022-10-24T23:06:26.078Z,7.70
2022-10-24T23:08:58.555Z,7.80
2022-10-24T23:11:31.455Z,10.30
2022-10-24T23:14:04.613Z,18.00
2022-10-24T23:16:44.422Z,13.00
2022-10-24T23:19:22.637Z,10.60
2022-10-24T23:21:59.150Z,10.00
2022-10-24T23:24:31.786Z,17.50
2022-10-24T23:27:15.852Z,20.60
2022-10-24T23:29:49.232Z,16.30
2022-10-24T23:32:27.809Z,10.10
2022-10-24T23:35:04.352Z,9.00
2022-10-24T23:37:39.462Z,9.20
2022-10-24T23:40:20.888Z,9.00
2022-10-24T23:42:54.569Z,8.70
2022-10-24T23:45:30.006Z,8.70
2022-10-24T23:48:10.891Z,8.70
2022-10-24T23:51:05.164Z,9.30
2022-10-24T23:53:50.444Z,8.70
2022-10-24T23:56:25.230Z,10.40
2022-10-24T23:58:58.499Z,10.40
